Time;durP1;ratioP1;P1;durP2;ratioP2;P2;SDS_P1;SDS_P2;PMS_P1;PMS_P2;Temp;Humidity;BMP_temperature;BMP_pressure;BME280_temperature;BME280_humidity;BME280_pressure;Samples;Min_cycle;Max_cycle;Signal;HPM_P1;HPM_P2
2023/12/09 00:01:43;;;;;;;48.93;10.23;;;;;;;-145.18;100.00;46662.34;5080750;28;20379;-73
2023/12/09 00:04:09;;;;;;;45.70;9.87;;;;;;;-145.18;100.00;46660.41;5084876;28;20120;-74
2023/12/09 00:06:35;;;;;;;34.57;9.47;;;;;;;-145.18;100.00;46664.31;5083293;28;20740;-74
2023/12/09 00:09:01;;;;;;;42.40;9.37;;;;;;;-145.18;100.00;46668.22;5074396;28;20261;-73
2023/12/09 00:11:26;;;;;;;41.57;9.67;;;;;;;-145.18;100.00;46656.50;5082062;28;20086;-73
2023/12/09 00:13:51;;;;;;;38.03;9.27;;;;;;;-145.18;100.00;46658.44;5084641;28;20036;-73
2023/12/09 00:16:18;;;;;;;45.77;9.90;;;;;;;-145.18;100.00;46666.25;5082655;28;20087;-73
2023/12/09 00:18:44;;;;;;;34.60;9.07;;;;;;;-145.18;100.00;46662.34;5082003;28;20032;-74
2023/12/09 00:21:10;;;;;;;38.73;9.57;;;;;;;-145.18;100.00;46660.41;5083709;28;20268;-73
2023/12/09 00:23:36;;;;;;;31.27;8.27;;;;;;;-145.18;100.00;46658.44;5075208;28;20024;-74
2023/12/09 00:26:02;;;;;;;31.80;8.63;;;;;;;-145.18;100.00;46664.31;5086652;28;20061;-74
2023/12/09 00:28:27;;;;;;;35.50;9.37;;;;;;;-145.18;100.00;46664.31;5073833;28;20269;-66
2023/12/09 00:30:52;;;;;;;30.90;8.87;;;;;;;-145.18;100.00;46662.34;5074396;28;20103;-66
2023/12/09 00:33:18;;;;;;;45.40;9.23;;;;;;;-145.18;100.00;46664.31;5074681;28;20496;-66
2023/12/09 00:35:43;;;;;;;29.97;8.00;;;;;;;-145.18;100.00;46664.31;5085409;28;20025;-66
2023/12/09 00:38:09;;;;;;;28.47;8.33;;;;;;;-145.18;100.00;46660.41;5074333;28;20055;-66
2023/12/09 00:40:34;;;;;;;33.87;8.57;;;;;;;-145.18;100.00;46670.16;5073826;28;20541;-66
2023/12/09 00:43:00;;;;;;;37.70;8.87;;;;;;;-145.18;100.00;46662.34;5086876;28;20025;-66
2023/12/09 00:45:25;;;;;;;28.27;7.23;;;;;;;-145.18;100.00;46664.31;5073782;28;20032;-66
2023/12/09 00:47:51;;;;;;;44.23;9.50;;;;;;;-145.18;100.00;46664.31;5086897;28;20032;-66
2023/12/09 00:50:17;;;;;;;33.87;7.73;;;;;;;-145.18;100.00;46662.34;5078428;28;20032;-66
2023/12/09 00:52:42;;;;;;;33.57;7.97;;;;;;;-145.18;100.00;46660.41;5076003;28;20044;-66
2023/12/09 00:55:08;;;;;;;33.90;7.87;;;;;;;-145.18;100.00;46660.41;5073877;28;20028;-66
2023/12/09 00:57:33;;;;;;;32.37;8.43;;;;;;;-145.18;100.00;46664.31;5079671;28;20075;-66
2023/12/09 00:59:59;;;;;;;40.73;8.40;;;;;;;-145.18;100.00;46664.31;5074773;28;20036;-66
2023/12/09 01:02:24;;;;;;;38.43;8.87;;;;;;;-145.18;100.00;46666.25;5083295;28;20039;-66
2023/12/09 01:04:49;;;;;;;35.53;7.83;;;;;;;-145.18;100.00;46664.31;5076847;28;20039;-66
2023/12/09 01:07:15;;;;;;;26.33;7.53;;;;;;;-145.18;100.00;46662.34;5073694;28;20120;-66
2023/12/09 01:09:40;;;;;;;38.40;8.10;;;;;;;-145.18;100.00;46666.25;5085660;28;20412;-66
2023/12/09 01:12:06;;;;;;;33.87;7.27;;;;;;;-145.18;100.00;46664.31;5075039;28;20052;-66
2023/12/09 01:14:31;;;;;;;32.03;7.20;;;;;;;-145.18;100.00;46668.22;5080457;28;20044;-67
2023/12/09 01:16:56;;;;;;;42.57;8.93;;;;;;;-145.18;100.00;46662.34;5089376;28;20040;-66
2023/12/09 01:19:22;;;;;;;36.50;7.50;;;;;;;-145.18;100.00;46662.34;5078229;28;20032;-66
2023/12/09 01:21:47;;;;;;;27.90;7.97;;;;;;;-145.18;100.00;46660.41;5078801;28;20046;-66
2023/12/09 01:24:13;;;;;;;27.90;7.63;;;;;;;-145.18;100.00;46668.22;5074419;28;20043;-66
2023/12/09 01:26:38;;;;;;;27.23;7.50;;;;;;;-145.18;100.00;46662.34;5079095;28;20120;-66
2023/12/09 01:29:04;;;;;;;36.77;8.50;;;;;;;-145.18;100.00;46670.16;5076619;28;20036;-66
2023/12/09 01:31:30;;;;;;;37.47;7.90;;;;;;;-145.18;100.00;46666.25;5081343;28;20105;-66
2023/12/09 01:33:56;;;;;;;36.90;8.43;;;;;;;-145.18;100.00;46654.53;5077442;28;20028;-66
2023/12/09 01:36:21;;;;;;;29.43;6.70;;;;;;;-145.18;100.00;46660.41;5081737;28;20261;-66
2023/12/09 01:38:47;;;;;;;36.03;8.40;;;;;;;-145.18;100.00;46660.41;5071251;28;20032;-66
2023/12/09 01:41:12;;;;;;;33.37;7.93;;;;;;;-145.18;100.00;46664.31;5073177;28;20120;-66
2023/12/09 01:43:37;;;;;;;29.20;8.73;;;;;;;-145.18;100.00;46664.31;5083259;28;20032;-66
2023/12/09 01:46:10;;;;;;;29.93;6.93;;;;;;;-145.18;100.00;46660.41;5088981;28;20034;-66
2023/12/09 01:48:37;;;;;;;30.80;8.20;;;;;;;-145.18;100.00;46664.31;5072866;28;20020;-66
2023/12/09 01:51:04;;;;;;;32.53;7.53;;;;;;;-145.18;100.00;46668.22;5075339;28;20253;-66
2023/12/09 01:53:30;;;;;;;38.57;9.77;;;;;;;-145.18;100.00;46664.31;5079038;28;20288;-66
2023/12/09 01:55:59;;;;;;;27.83;7.47;;;;;;;-145.18;100.00;46662.34;5072809;28;20265;-66
2023/12/09 01:58:25;;;;;;;36.70;8.40;;;;;;;-145.18;100.00;46660.41;5075387;28;20272;-67
2023/12/09 02:00:51;;;;;;;33.87;8.47;;;;;;;-145.18;100.00;46660.41;5081571;28;20620;-66
2023/12/09 02:03:17;;;;;;;39.87;8.47;;;;;;;-145.18;100.00;46660.41;5074604;28;20277;-66
2023/12/09 02:05:42;;;;;;;31.00;7.23;;;;;;;-145.18;100.00;46668.22;5075563;28;20499;-66
2023/12/09 02:08:08;;;;;;;31.80;6.80;;;;;;;-145.18;100.00;46662.34;5076528;28;20351;-66
2023/12/09 02:10:34;;;;;;;40.80;8.17;;;;;;;-145.18;100.00;46662.34;5074037;28;20035;-66
2023/12/09 02:13:20;;;;;;;28.07;7.37;;;;;;;-145.18;100.00;46660.41;5072140;28;20097;-66
2023/12/09 02:16:05;;;;;;;30.27;6.97;;;;;;;-145.18;100.00;46662.34;5072573;28;20028;-66
2023/12/09 02:18:30;;;;;;;21.10;6.33;;;;;;;-145.18;100.00;46662.34;5072585;28;20269;-66
2023/12/09 02:20:56;;;;;;;47.40;7.60;;;;;;;-145.18;100.00;46666.25;5072440;28;20291;-67
2023/12/09 02:23:21;;;;;;;33.33;7.13;;;;;;;-145.18;100.00;46664.31;5073555;28;20568;-66
2023/12/09 02:25:51;;;;;;;26.87;7.80;;;;;;;-145.18;100.00;46662.34;5073255;28;20038;-66
2023/12/09 02:28:19;;;;;;;26.27;7.87;;;;;;;-145.18;100.00;46660.41;5072112;28;20028;-66
2023/12/09 02:31:06;;;;;;;32.73;7.10;;;;;;;-145.18;100.00;46658.44;5078300;28;20260;-66
2023/12/09 02:33:33;;;;;;;28.10;6.30;;;;;;;-145.18;100.00;46662.34;5072672;28;20684;-66
2023/12/09 02:36:01;;;;;;;35.33;8.43;;;;;;;-145.18;100.00;46658.44;5073298;28;20286;-66
2023/12/09 02:38:28;;;;;;;30.73;7.40;;;;;;;-145.18;100.00;46660.41;5079198;28;20805;-66
2023/12/09 02:40:54;;;;;;;19.87;6.83;;;;;;;-145.18;100.00;46662.34;5072138;28;20290;-66
2023/12/09 02:43:19;;;;;;;30.90;7.77;;;;;;;-145.18;100.00;46662.34;5070750;28;20683;-66
2023/12/09 02:45:45;;;;;;;28.10;8.37;;;;;;;-145.18;100.00;46660.41;5090910;28;20265;-66
2023/12/09 02:48:11;;;;;;;29.77;7.33;;;;;;;-145.18;100.00;46660.41;5073767;28;20040;-66
2023/12/09 02:50:36;;;;;;;34.27;7.40;;;;;;;-145.18;100.00;46654.53;5079712;28;20625;-66
2023/12/09 02:53:02;;;;;;;28.83;8.47;;;;;;;-145.18;100.00;46654.53;5083471;28;20029;-66
2023/12/09 02:55:28;;;;;;;40.87;9.07;;;;;;;-145.18;100.00;46660.41;5082337;28;20111;-66
2023/12/09 02:57:53;;;;;;;28.23;8.30;;;;;;;-145.18;100.00;46654.53;5094011;28;20047;-66
2023/12/09 03:00:18;;;;;;;38.37;8.23;;;;;;;-145.18;100.00;46660.41;5075650;28;20040;-66
2023/12/09 03:02:44;;;;;;;32.77;9.47;;;;;;;-145.18;100.00;46658.44;5074136;28;20415;-66
2023/12/09 03:05:09;;;;;;;29.80;7.67;;;;;;;-145.18;100.00;46662.34;5071896;28;20044;-66
2023/12/09 03:07:35;;;;;;;31.87;9.00;;;;;;;-145.18;100.00;46664.31;5075007;28;20035;-66
2023/12/09 03:10:00;;;;;;;28.70;7.67;;;;;;;-145.18;100.00;46660.41;5074190;28;20040;-66
2023/12/09 03:12:25;;;;;;;32.87;9.83;;;;;;;-145.18;100.00;46654.53;5071148;28;20056;-66
2023/12/09 03:14:52;;;;;;;28.93;7.47;;;;;;;-145.18;100.00;46656.50;5072878;28;20040;-66
2023/12/09 03:17:19;;;;;;;31.67;8.57;;;;;;;-145.18;100.00;46660.41;5072077;28;20476;-66
2023/12/09 03:19:44;;;;;;;30.93;8.63;;;;;;;-145.18;100.00;46660.41;5086201;28;20361;-66
2023/12/09 03:22:10;;;;;;;36.37;8.60;;;;;;;-145.18;100.00;46658.44;5086830;28;20671;-66
2023/12/09 03:24:35;;;;;;;29.10;7.90;;;;;;;-145.18;100.00;46660.41;5096426;28;20075;-66
2023/12/09 03:27:00;;;;;;;36.27;7.40;;;;;;;-145.18;100.00;46658.44;5072779;28;21015;-66
2023/12/09 03:29:26;;;;;;;41.33;9.90;;;;;;;-145.18;100.00;46658.44;5076648;28;20039;-66
2023/12/09 03:31:51;;;;;;;25.03;8.33;;;;;;;-145.18;100.00;46654.53;5077196;28;20055;-66
2023/12/09 03:34:16;;;;;;;31.07;9.47;;;;;;;-145.18;100.00;46660.41;5082553;28;20029;-66
2023/12/09 03:36:42;;;;;;;39.10;7.67;;;;;;;-145.18;100.00;46654.53;5081171;28;20059;-66
2023/12/09 03:39:08;;;;;;;40.63;9.97;;;;;;;-145.18;100.00;46652.59;5077317;28;20032;-66
2023/12/09 03:41:36;;;;;;;38.00;9.23;;;;;;;-145.18;100.00;46658.44;5073105;28;20107;-66
2023/12/09 03:44:02;;;;;;;42.77;9.97;;;;;;;-145.18;100.00;46656.50;5080245;28;20040;-66
2023/12/09 03:46:27;;;;;;;30.80;8.73;;;;;;;-145.18;100.00;46660.41;5086304;28;20281;-66
2023/12/09 03:48:53;;;;;;;49.97;9.97;;;;;;;-145.18;100.00;46658.44;5095128;28;20277;-66
2023/12/09 03:51:18;;;;;;;39.80;9.47;;;;;;;-145.18;100.00;46656.50;5082194;28;20039;-66
2023/12/09 03:53:44;;;;;;;33.43;10.13;;;;;;;-145.18;100.00;46658.44;5078230;28;20466;-66
2023/12/09 03:56:13;;;;;;;30.30;10.73;;;;;;;-145.18;100.00;46658.44;5081801;28;20043;-66
2023/12/09 03:58:38;;;;;;;37.97;9.70;;;;;;;-145.18;100.00;46656.50;5075034;28;20115;-66
2023/12/09 04:01:04;;;;;;;41.50;10.10;;;;;;;-145.18;100.00;46660.41;5084372;28;20268;-66
2023/12/09 04:03:30;;;;;;;38.77;11.27;;;;;;;-145.18;100.00;46654.53;5080977;28;20484;-66
2023/12/09 04:05:55;;;;;;;41.73;10.43;;;;;;;-145.18;100.00;46658.44;5073053;28;20411;-66
2023/12/09 04:08:21;;;;;;;37.63;9.50;;;;;;;-145.18;100.00;46656.50;5074296;28;20036;-66
2023/12/09 04:10:46;;;;;;;35.43;9.70;;;;;;;-145.18;100.00;46660.41;5074520;28;20028;-66
2023/12/09 04:13:12;;;;;;;41.13;10.60;;;;;;;-145.18;100.00;46654.53;5074372;28;20053;-66
2023/12/09 04:15:40;;;;;;;30.17;9.27;;;;;;;-145.18;100.00;46656.50;5084769;28;20094;-67
2023/12/09 04:18:06;;;;;;;23.77;8.43;;;;;;;-145.18;100.00;46658.44;5077564;28;20036;-74
2023/12/09 04:20:31;;;;;;;32.57;8.80;;;;;;;-145.18;100.00;46656.50;5097906;28;20316;-74
2023/12/09 04:22:57;;;;;;;35.40;9.47;;;;;;;-145.18;100.00;46654.53;5093718;28;20458;-74
2023/12/09 04:25:24;;;;;;;32.80;9.80;;;;;;;-145.18;100.00;46656.50;5081354;28;20039;-74
2023/12/09 04:27:50;;;;;;;34.13;8.77;;;;;;;-145.18;100.00;46656.50;5087909;28;20484;-74
2023/12/09 04:30:15;;;;;;;35.77;8.93;;;;;;;-145.18;100.00;46656.50;5088083;28;20330;-74
2023/12/09 04:32:41;;;;;;;35.30;8.53;;;;;;;-145.18;100.00;46656.50;5079364;28;20338;-74
2023/12/09 04:35:08;;;;;;;44.63;10.30;;;;;;;-145.18;100.00;46658.44;5074599;28;20532;-75
2023/12/09 04:37:34;;;;;;;39.50;8.47;;;;;;;-145.18;100.00;46656.50;5080509;28;20024;-74
2023/12/09 04:40:00;;;;;;;30.43;8.10;;;;;;;-145.18;100.00;46658.44;5087609;28;20263;-74
2023/12/09 04:42:25;;;;;;;36.60;8.67;;;;;;;-145.18;100.00;46652.59;5091064;28;20759;-73
2023/12/09 04:44:51;;;;;;;53.30;9.47;;;;;;;-145.18;100.00;46652.59;5087645;28;20268;-74
2023/12/09 04:47:16;;;;;;;45.77;9.03;;;;;;;-145.18;100.00;46658.44;5074522;28;20048;-75
2023/12/09 04:49:42;;;;;;;29.70;9.77;;;;;;;-145.18;100.00;46664.31;5075904;28;20078;-74
2023/12/09 04:52:08;;;;;;;33.33;9.67;;;;;;;-145.18;100.00;46662.34;5080390;28;20101;-74
2023/12/09 04:54:33;;;;;;;37.03;9.63;;;;;;;-145.18;100.00;46660.41;5080680;28;21071;-74
2023/12/09 04:56:59;;;;;;;33.90;8.90;;;;;;;-145.18;100.00;46664.31;5079362;28;20024;-74
2023/12/09 04:59:24;;;;;;;30.60;9.07;;;;;;;-145.18;100.00;46662.34;5081602;28;20557;-74
2023/12/09 05:01:50;;;;;;;44.27;9.80;;;;;;;-145.18;100.00;46660.41;5087823;28;20031;-73
2023/12/09 05:04:17;;;;;;;43.47;9.90;;;;;;;-145.18;100.00;46664.31;5092656;28;20385;-74
2023/12/09 05:06:43;;;;;;;32.03;8.07;;;;;;;-145.18;100.00;46666.25;5079170;28;20484;-74
2023/12/09 05:09:10;;;;;;;29.90;8.37;;;;;;;-145.18;100.00;46664.31;5081881;28;20269;-74
2023/12/09 05:11:35;;;;;;;40.57;9.80;;;;;;;-145.18;100.00;46664.31;5073326;28;20294;-74
2023/12/09 05:14:00;;;;;;;35.47;8.90;;;;;;;-145.18;100.00;46664.31;5082502;28;20331;-73
2023/12/09 05:16:27;;;;;;;26.90;8.17;;;;;;;-145.18;100.00;46660.41;5092381;28;20032;-73
2023/12/09 05:18:53;;;;;;;35.37;8.57;;;;;;;-145.18;100.00;46662.34;5088030;28;20062;-73
2023/12/09 05:21:19;;;;;;;34.03;7.83;;;;;;;-145.18;100.00;46664.31;5083711;28;20320;-74
2023/12/09 05:23:46;;;;;;;34.53;9.37;;;;;;;-145.18;100.00;46662.34;5082191;28;20727;-74
2023/12/09 05:26:22;;;;;;;26.03;7.80;;;;;;;-145.18;100.00;46662.34;5084942;28;20086;-73
2023/12/09 05:28:49;;;;;;;35.63;9.53;;;;;;;-145.18;100.00;46660.41;5089019;28;20268;-74
2023/12/09 05:31:14;;;;;;;36.57;9.57;;;;;;;-145.18;100.00;46660.41;5078997;28;20268;-73
2023/12/09 05:33:40;;;;;;;32.80;7.90;;;;;;;-145.18;100.00;46666.25;5085539;28;20281;-74
2023/12/09 05:36:06;;;;;;;30.27;7.67;;;;;;;-145.18;100.00;46668.22;5089210;28;20486;-74
2023/12/09 05:38:31;;;;;;;39.73;9.00;;;;;;;-145.18;100.00;46668.22;5087395;28;20040;-66
2023/12/09 05:40:57;;;;;;;39.60;8.47;;;;;;;-145.18;100.00;46668.22;5084747;28;20760;-66
2023/12/09 05:43:22;;;;;;;28.53;8.13;;;;;;;-145.18;100.00;46662.34;5081282;28;20021;-66
2023/12/09 05:45:47;;;;;;;40.93;9.90;;;;;;;-145.18;100.00;46668.22;5084669;28;20029;-66
2023/12/09 05:48:13;;;;;;;31.27;8.03;;;;;;;-145.18;100.00;46670.16;5070110;28;20043;-66
2023/12/09 05:50:38;;;;;;;32.97;7.73;;;;;;;-145.18;100.00;46666.25;5081423;28;20048;-66
2023/12/09 05:53:04;;;;;;;39.20;8.50;;;;;;;-145.18;100.00;46670.16;5082987;28;20036;-66
2023/12/09 05:55:29;;;;;;;36.90;9.43;;;;;;;-145.18;100.00;46668.22;5085621;28;20654;-66
2023/12/09 05:57:54;;;;;;;31.77;7.77;;;;;;;-145.18;100.00;46668.22;5080065;28;20027;-66
2023/12/09 06:00:20;;;;;;;38.47;9.47;;;;;;;-145.18;100.00;46670.16;5074198;28;20484;-66
2023/12/09 06:02:45;;;;;;;33.77;8.07;;;;;;;-145.18;100.00;46672.13;5076181;28;20031;-65
2023/12/09 06:05:10;;;;;;;36.50;8.60;;;;;;;-145.18;100.00;46672.13;5085721;28;20652;-66
2023/12/09 06:07:36;;;;;;;36.07;8.90;;;;;;;-145.18;100.00;46672.13;5079697;28;20040;-65
2023/12/09 06:10:01;;;;;;;44.23;9.07;;;;;;;-145.18;100.00;46666.25;5076974;28;20020;-66
2023/12/09 06:12:27;;;;;;;32.20;11.10;;;;;;;-145.18;100.00;46670.16;5079170;28;20056;-66
2023/12/09 06:14:53;;;;;;;44.60;10.20;;;;;;;-145.18;100.00;46676.03;5072614;28;20392;-66
2023/12/09 06:17:18;;;;;;;28.70;8.70;;;;;;;-145.18;100.00;46672.13;5072582;28;20025;-66
2023/12/09 06:19:44;;;;;;;42.87;9.20;;;;;;;-145.18;100.00;46677.97;5080972;28;20630;-66
2023/12/09 06:22:09;;;;;;;34.37;9.43;;;;;;;-145.18;100.00;46676.03;5083667;28;20107;-66
2023/12/09 06:24:34;;;;;;;35.77;8.97;;;;;;;-145.18;100.00;46672.13;5075349;28;20111;-66
2023/12/09 06:27:00;;;;;;;34.13;8.83;;;;;;;-145.18;100.00;46674.06;5078694;28;20479;-66
2023/12/09 06:29:25;;;;;;;47.00;9.87;;;;;;;-145.18;100.00;46677.97;5090304;28;20110;-66
2023/12/09 06:31:50;;;;;;;38.03;8.43;;;;;;;-145.18;100.00;46676.03;5078504;28;20032;-66
2023/12/09 06:34:16;;;;;;;36.23;9.57;;;;;;;-145.18;100.00;46668.22;5084481;28;20481;-66
2023/12/09 06:36:41;;;;;;;33.73;9.77;;;;;;;-145.18;100.00;46674.06;5086606;28;20035;-66
2023/12/09 06:39:07;;;;;;;44.20;9.17;;;;;;;-145.18;100.00;46670.16;5087045;28;20486;-66
2023/12/09 06:41:32;;;;;;;29.97;8.50;;;;;;;-145.18;100.00;46672.13;5082584;28;20516;-66
2023/12/09 06:43:57;;;;;;;37.97;9.67;;;;;;;-145.18;100.00;46672.13;5074718;28;20016;-66
2023/12/09 06:46:23;;;;;;;40.87;11.67;;;;;;;-145.18;100.00;46674.06;5079200;28;20377;-66
2023/12/09 06:48:48;;;;;;;40.63;10.23;;;;;;;-145.18;100.00;46676.03;5074463;28;20110;-73
2023/12/09 06:51:17;;;;;;;40.20;10.57;;;;;;;-145.18;100.00;46672.13;5078335;28;20071;-74
2023/12/09 06:53:43;;;;;;;31.97;8.93;;;;;;;-145.18;100.00;46672.13;5084676;28;20460;-73
2023/12/09 06:56:18;;;;;;;31.47;9.43;;;;;;;-145.18;100.00;46668.22;5081281;28;20659;-74
2023/12/09 06:58:43;;;;;;;39.60;9.43;;;;;;;-145.18;100.00;46668.22;5074101;28;20257;-73
2023/12/09 07:01:09;;;;;;;22.97;9.03;;;;;;;-145.18;100.00;46670.16;5071867;28;20041;-73
2023/12/09 07:03:37;;;;;;;37.50;9.57;;;;;;;-145.18;100.00;46668.22;5083805;28;20030;-73
2023/12/09 07:06:04;;;;;;;33.77;9.47;;;;;;;-145.18;100.00;46674.06;5072084;28;20107;-73
2023/12/09 07:08:30;;;;;;;20.60;8.27;;;;;;;-145.18;100.00;46670.16;5082333;28;20726;-73
2023/12/09 07:10:59;;;;;;;40.87;10.40;;;;;;;-145.18;100.00;46664.31;5087577;28;20294;-73
2023/12/09 07:13:24;;;;;;;29.70;8.70;;;;;;;-145.18;100.00;46666.25;5082776;28;20501;-73
2023/12/09 07:15:50;;;;;;;32.47;8.93;;;;;;;-145.18;100.00;46668.22;5076463;28;20462;-73
2023/12/09 07:18:15;;;;;;;39.73;9.63;;;;;;;-145.18;100.00;46672.13;5079917;28;20139;-75
2023/12/09 07:20:40;;;;;;;24.03;7.80;;;;;;;-145.18;100.00;46666.25;5079963;28;20066;-75
2023/12/09 07:23:06;;;;;;;35.87;9.40;;;;;;;-145.18;100.00;46672.13;5076979;28;20384;-75
2023/12/09 07:25:31;;;;;;;33.40;9.63;;;;;;;-145.18;100.00;46670.16;5087210;28;20099;-74
2023/12/09 07:27:57;;;;;;;39.27;9.57;;;;;;;-145.18;100.00;46670.16;5078960;28;20468;-75
2023/12/09 07:30:22;;;;;;;27.73;6.63;;;;;;;-145.18;100.00;46672.13;5083751;28;20078;-75
2023/12/09 07:32:48;;;;;;;38.73;10.00;;;;;;;-145.18;100.00;46664.31;5087668;28;20484;-76
2023/12/09 07:35:13;;;;;;;31.33;7.67;;;;;;;-145.18;100.00;46670.16;5088526;28;20047;-75
2023/12/09 07:37:39;;;;;;;33.87;9.67;;;;;;;-145.18;100.00;46670.16;5091295;28;20035;-74
2023/12/09 07:40:06;;;;;;;28.40;8.27;;;;;;;-145.18;100.00;46670.16;5088424;28;20024;-75
2023/12/09 07:42:31;;;;;;;28.83;7.50;;;;;;;-145.18;100.00;46672.13;5091119;28;20036;-74
2023/12/09 07:44:57;;;;;;;29.07;7.30;;;;;;;-145.18;100.00;46668.22;5087627;28;20269;-75
2023/12/09 07:47:22;;;;;;;36.00;7.20;;;;;;;-145.18;100.00;46670.16;5102684;28;20369;-77
2023/12/09 07:49:47;;;;;;;25.17;7.23;;;;;;;-145.18;100.00;46664.31;5086445;28;20162;-76
2023/12/09 07:52:13;;;;;;;29.60;6.80;;;;;;;-145.18;100.00;46672.13;5091505;28;20039;-76
2023/12/09 07:54:38;;;;;;;24.17;7.47;;;;;;;-145.18;100.00;46674.06;5087348;28;20400;-76
2023/12/09 07:57:04;;;;;;;33.43;6.90;;;;;;;-145.18;100.00;46677.97;5091848;28;20028;-75
2023/12/09 07:59:29;;;;;;;23.90;6.17;;;;;;;-145.18;100.00;46672.13;5085081;28;20450;-75
2023/12/09 08:01:55;;;;;;;29.97;6.90;;;;;;;-145.18;100.00;46674.06;5080374;28;20024;-75
2023/12/09 08:04:20;;;;;;;28.67;5.67;;;;;;;-145.18;100.00;46672.13;5087169;28;20059;-75
2023/12/09 08:06:45;;;;;;;22.20;5.20;;;;;;;-145.18;100.00;46672.13;5094244;28;20392;-75
2023/12/09 08:09:11;;;;;;;22.63;6.73;;;;;;;-145.18;100.00;46672.13;5090201;28;20084;-75
2023/12/09 08:11:36;;;;;;;29.53;7.23;;;;;;;-145.18;100.00;46672.13;5087439;28;20063;-75
2023/12/09 08:14:02;;;;;;;22.57;6.67;;;;;;;-145.18;100.00;46672.13;5089697;28;20032;-75
2023/12/09 08:16:27;;;;;;;29.77;6.70;;;;;;;-145.18;100.00;46668.22;5074158;28;20411;-75
2023/12/09 08:18:53;;;;;;;29.40;5.60;;;;;;;-145.18;100.00;46672.13;5094138;28;20028;-75
2023/12/09 08:21:18;;;;;;;25.47;5.60;;;;;;;-145.18;100.00;46676.03;5088741;28;20036;-75
2023/12/09 08:23:44;;;;;;;22.60;5.57;;;;;;;-145.18;100.00;46674.06;5093222;28;20035;-75
2023/12/09 08:26:15;;;;;;;21.87;5.63;;;;;;;-145.18;100.00;46674.06;5087294;28;20090;-75
2023/12/09 08:28:40;;;;;;;16.73;5.47;;;;;;;-145.18;100.00;46683.84;5087188;28;20488;-75
2023/12/09 08:31:06;;;;;;;23.23;5.60;;;;;;;-145.18;100.00;46670.16;5083322;28;20293;-76
2023/12/09 08:33:32;;;;;;;28.37;5.47;;;;;;;-145.18;100.00;46672.13;5089355;28;20369;-75
2023/12/09 08:35:57;;;;;;;23.50;4.80;;;;;;;-145.18;100.00;46670.16;5092261;28;20260;-79
2023/12/09 08:38:23;;;;;;;16.40;5.67;;;;;;;-145.18;100.00;46683.84;5090451;28;20115;-75
2023/12/09 08:40:48;;;;;;;19.07;5.47;;;;;;;-145.18;100.00;46676.03;5103433;28;20509;-75
2023/12/09 08:43:13;;;;;;;22.30;5.70;;;;;;;-145.18;100.00;46683.84;5086210;28;20028;-76
2023/12/09 08:45:39;;;;;;;30.63;4.60;;;;;;;-145.18;100.00;46687.75;5083117;28;20024;-75
2023/12/09 08:48:04;;;;;;;17.10;5.50;;;;;;;-145.18;100.00;46683.84;5074692;28;20079;-76
2023/12/09 08:50:30;;;;;;;16.83;4.43;;;;;;;-145.18;100.00;46681.88;5075072;28;20040;-76
2023/12/09 08:52:57;;;;;;;17.73;3.83;;;;;;;-145.18;100.00;46681.88;5073933;28;20606;-76
2023/12/09 08:55:22;;;;;;;18.60;4.43;;;;;;;-145.18;100.00;46683.84;5087964;28;20484;-75
2023/12/09 08:57:48;;;;;;;20.47;4.77;;;;;;;-145.18;100.00;46674.06;5079660;28;20292;-74
2023/12/09 09:00:18;;;;;;;23.07;4.60;;;;;;;-145.18;100.00;46679.94;5088963;28;20449;-76
2023/12/09 09:02:44;;;;;;;26.40;5.73;;;;;;;-145.18;100.00;46677.97;5073576;28;20042;-75
2023/12/09 09:05:10;;;;;;;20.37;4.27;;;;;;;-145.18;100.00;46672.13;5088889;28;20261;-76
2023/12/09 09:07:40;;;;;;;15.33;4.23;;;;;;;-145.18;100.00;46677.97;5079469;28;20023;-75
2023/12/09 09:10:08;;;;;;;24.67;3.90;;;;;;;-145.18;100.00;46670.16;5088272;28;20028;-75
2023/12/09 09:12:34;;;;;;;15.27;3.90;;;;;;;-145.18;100.00;46670.16;5085162;28;20284;-75
2023/12/09 09:14:59;;;;;;;18.50;3.30;;;;;;;-145.18;100.00;46672.13;5085442;28;20325;-75
2023/12/09 09:17:25;;;;;;;17.77;4.57;;;;;;;-145.18;100.00;46685.78;5081404;28;20052;-75
2023/12/09 09:19:51;;;;;;;15.47;3.60;;;;;;;-145.18;100.00;46689.69;5089355;28;20040;-75
2023/12/09 09:22:16;;;;;;;19.53;3.67;;;;;;;-145.18;100.00;46679.94;5081732;28;20032;-75
2023/12/09 09:24:42;;;;;;;18.80;3.83;;;;;;;-145.18;100.00;46681.88;5073269;28;20262;-75
2023/12/09 09:27:08;;;;;;;15.50;3.93;;;;;;;-145.18;100.00;46685.78;5084568;28;20111;-75
2023/12/09 09:29:33;;;;;;;17.30;4.03;;;;;;;-145.18;100.00;46689.69;5079290;28;20086;-75
2023/12/09 09:31:58;;;;;;;19.03;3.00;;;;;;;-145.18;100.00;46687.75;5086869;28;20038;-75
2023/12/09 09:34:24;;;;;;;22.43;3.80;;;;;;;-145.18;100.00;46679.94;5079088;28;20412;-75
2023/12/09 09:36:49;;;;;;;19.77;4.40;;;;;;;-145.18;100.00;46689.69;5083085;28;20082;-75
2023/12/09 09:39:15;;;;;;;15.50;3.47;;;;;;;-145.18;100.00;46687.75;5080876;28;20577;-76
2023/12/09 09:42:08;;;;;;;12.97;3.47;;;;;;;-145.18;100.00;46681.88;5078678;28;20047;-76
2023/12/09 09:44:38;;;;;;;19.80;4.03;;;;;;;-145.18;100.00;46687.75;5089764;28;20051;-75
2023/12/09 09:47:06;;;;;;;18.10;4.67;;;;;;;-145.18;100.00;46687.75;5079033;28;20764;-76
2023/12/09 09:49:33;;;;;;;14.40;2.57;;;;;;;-145.18;100.00;46681.88;5082865;28;20265;-76
2023/12/09 09:52:02;;;;;;;19.53;3.93;;;;;;;-145.18;100.00;46687.75;5081686;28;20440;-75
2023/12/09 09:54:30;;;;;;;17.40;3.37;;;;;;;-145.18;100.00;46681.88;5086743;28;20371;-75
2023/12/09 09:56:58;;;;;;;11.97;2.60;;;;;;;-145.18;100.00;46679.94;5082799;28;20269;-76
2023/12/09 09:59:24;;;;;;;9.17;2.47;;;;;;;-145.18;100.00;46685.78;5091297;28;20268;-75
2023/12/09 10:01:50;;;;;;;13.07;2.93;;;;;;;-145.18;100.00;46681.88;5088889;28;20253;-75
2023/12/09 10:04:16;;;;;;;29.13;3.67;;;;;;;-145.18;100.00;46687.75;5084302;28;20283;-76
2023/12/09 10:06:43;;;;;;;12.70;2.60;;;;;;;-145.18;100.00;46683.84;5090175;28;20096;-75
2023/12/09 10:09:08;;;;;;;15.60;2.77;;;;;;;-145.18;100.00;46681.88;5085255;28;20020;-74
2023/12/09 10:11:34;;;;;;;15.83;2.47;;;;;;;-145.18;100.00;46685.78;5087655;28;20272;-75
2023/12/09 10:13:59;;;;;;;17.00;3.70;;;;;;;-145.18;100.00;46685.78;5088345;28;20028;-76
2023/12/09 10:16:24;;;;;;;10.40;2.90;;;;;;;-145.18;100.00;46683.84;5089757;28;20438;-76
2023/12/09 10:18:50;;;;;;;15.93;2.77;;;;;;;-145.18;100.00;46683.84;5089004;28;20472;-75
2023/12/09 10:21:16;;;;;;;19.40;3.13;;;;;;;-145.18;100.00;46687.75;5091758;28;20062;-76
2023/12/09 10:23:44;;;;;;;15.70;3.00;;;;;;;-145.18;100.00;46685.78;5077117;28;20025;-75
2023/12/09 10:26:10;;;;;;;15.30;2.37;;;;;;;-145.18;100.00;46687.75;5083239;28;20089;-75
2023/12/09 10:28:36;;;;;;;10.00;3.07;;;;;;;-145.18;100.00;46689.69;5082008;28;20931;-75
2023/12/09 10:31:02;;;;;;;9.23;2.63;;;;;;;-145.18;100.00;46687.75;5087428;28;20058;-75
2023/12/09 10:33:34;;;;;;;13.57;2.97;;;;;;;-145.18;100.00;46687.75;5083320;28;20308;-76
2023/12/09 10:36:00;;;;;;;9.40;2.03;;;;;;;-145.18;100.00;46689.69;5084155;28;20411;-75
2023/12/09 10:38:30;;;;;;;14.80;2.53;;;;;;;-145.18;100.00;46689.69;5084736;28;20359;-75
2023/12/09 10:40:56;;;;;;;11.17;4.13;;;;;;;-145.18;100.00;46685.78;5085132;28;20632;-75
2023/12/09 10:43:23;;;;;;;9.73;2.63;;;;;;;-145.18;100.00;46689.69;5087220;28;20269;-76
2023/12/09 10:45:48;;;;;;;15.10;2.23;;;;;;;-145.18;100.00;46687.75;5083371;28;21874;-76
2023/12/09 10:48:14;;;;;;;11.37;2.60;;;;;;;-145.18;100.00;46689.69;5081638;28;20288;-75
2023/12/09 10:50:44;;;;;;;15.10;2.43;;;;;;;-145.18;100.00;46685.78;5083736;28;20146;-75
2023/12/09 10:53:09;;;;;;;13.77;2.47;;;;;;;-145.18;100.00;46689.69;5083412;28;20303;-76
2023/12/09 10:55:34;;;;;;;11.60;2.23;;;;;;;-145.18;100.00;46691.66;5086635;28;20759;-74
2023/12/09 10:58:02;;;;;;;7.50;1.93;;;;;;;-145.18;100.00;46691.66;5087152;28;20034;-74